createdAt,value
2018-04-23T00:00:48.371Z,68.40
2018-04-23T00:03:15.861Z,68.30
2018-04-23T00:05:43.692Z,68.30
2018-04-23T00:08:11.203Z,68.80
2018-04-23T00:10:39.115Z,69.50
2018-04-23T00:13:06.905Z,70.10
2018-04-23T00:15:35.154Z,71.80
2018-04-23T00:18:02.623Z,71.80
2018-04-23T00:20:30.406Z,72.30
2018-04-23T00:22:58.066Z,72.60
2018-04-23T00:25:25.507Z,72.60
2018-04-23T00:27:53.885Z,72.20
2018-04-23T00:30:21.315Z,72.40
2018-04-23T00:32:48.759Z,72.50
2018-04-23T00:35:17.366Z,73.00
2018-04-23T00:37:44.843Z,72.90
2018-04-23T00:40:14.237Z,72.30
2018-04-23T00:42:41.730Z,72.30
2018-04-23T00:45:10.476Z,74.50
2018-04-23T00:47:37.918Z,74.50
2018-04-23T00:50:05.462Z,75.40
2018-04-23T00:52:32.911Z,76.70
2018-04-23T00:55:00.407Z,76.90
2018-04-23T00:57:28.071Z,77.90
2018-04-23T00:59:55.717Z,78.20
2018-04-23T01:02:23.591Z,78.70
2018-04-23T01:04:51.597Z,79.10
2018-04-23T01:07:19.816Z,80.00
2018-04-23T01:09:47.503Z,79.90
2018-04-23T01:12:15.489Z,79.50
2018-04-23T01:14:42.948Z,79.60
2018-04-23T01:17:11.169Z,79.60
2018-04-23T01:19:39.132Z,79.30
2018-04-23T01:22:06.559Z,79.20
2018-04-23T01:24:35.121Z,79.00
2018-04-23T01:27:02.617Z,79.00
2018-04-23T01:29:30.059Z,78.70
2018-04-23T01:31:58.323Z,78.00
2018-04-23T01:34:26.635Z,78.30
2018-04-23T01:36:54.627Z,78.20
2018-04-23T01:39:22.589Z,78.70
2018-04-23T01:41:50.998Z,78.40
2018-04-23T01:44:20.278Z,78.60
2018-04-23T01:46:48.165Z,77.80
2018-04-23T01:49:15.940Z,78.10
2018-04-23T01:51:44.156Z,77.90
2018-04-23T01:54:11.714Z,77.70
2018-04-23T01:56:39.271Z,78.00
2018-04-23T01:59:06.710Z,78.20
2018-04-23T02:01:34.736Z,78.50
2018-04-23T02:04:02.499Z,78.70
2018-04-23T02:06:29.948Z,78.90
2018-04-23T02:08:57.416Z,79.00
2018-04-23T02:11:25.275Z,79.40
2018-04-23T02:13:52.864Z,78.90
2018-04-23T02:16:21.125Z,79.10
2018-04-23T02:18:50.515Z,79.30
2018-04-23T02:21:18.374Z,79.20
2018-04-23T02:23:45.823Z,79.20
2018-04-23T02:26:13.429Z,79.50
2018-04-23T02:28:41.645Z,79.20
2018-04-23T02:31:09.734Z,79.20
2018-04-23T02:33:37.186Z,79.30
2018-04-23T02:36:06.499Z,79.40
2018-04-23T02:38:33.952Z,79.20
2018-04-23T02:41:01.888Z,79.00
2018-04-23T02:43:29.478Z,79.00
2018-04-23T02:45:57.028Z,79.80
2018-04-23T02:48:24.493Z,79.10
2018-04-23T02:50:51.950Z,79.20
2018-04-23T02:53:19.508Z,79.40
2018-04-23T02:55:47.215Z,79.60
2018-04-23T02:58:14.668Z,79.60
2018-04-23T03:00:42.869Z,80.30
2018-04-23T03:03:10.661Z,80.20
2018-04-23T03:05:38.563Z,80.40
2018-04-23T03:08:06.816Z,80.70
2018-04-23T03:10:34.725Z,80.60
2018-04-23T03:13:02.637Z,80.80
2018-04-23T03:15:30.099Z,81.20
2018-04-23T03:17:57.560Z,81.40
2018-04-23T03:20:25.490Z,81.30
2018-04-23T03:22:53.227Z,81.30
2018-04-23T03:25:21.435Z,81.70
2018-04-23T03:27:48.944Z,81.70
2018-04-23T03:30:18.001Z,81.70
2018-04-23T03:32:45.591Z,81.70
2018-04-23T03:35:14.971Z,80.80
2018-04-23T03:37:42.417Z,80.60
2018-04-23T03:40:10.500Z,79.80
2018-04-23T03:42:37.974Z,79.30
2018-04-23T03:45:05.776Z,79.30
2018-04-23T03:47:33.220Z,78.80
2018-04-23T03:50:01.893Z,78.30
2018-04-23T03:52:29.342Z,78.30
2018-04-23T03:54:58.325Z,77.90
2018-04-23T03:57:25.761Z,77.90
2018-04-23T03:59:53.275Z,78.00
2018-04-23T04:02:21.711Z,77.10
2018-04-23T04:04:49.571Z,76.80
2018-04-23T04:07:17.050Z,76.70
2018-04-23T04:09:45.138Z,76.80
2018-04-23T04:12:25.875Z,77.50
2018-04-23T04:15:05.612Z,77.50
2018-04-23T04:20:38.241Z,77.90
2018-04-23T04:23:06.520Z,77.10
2018-04-23T04:25:35.268Z,77.30
2018-04-23T04:28:03.036Z,77.30
2018-04-23T04:30:30.495Z,77.00
2018-04-23T04:32:58.460Z,76.70
2018-04-23T04:35:26.503Z,76.10
2018-04-23T04:37:53.975Z,76.40
2018-04-23T04:40:22.057Z,76.00
2018-04-23T04:42:49.500Z,76.00
2018-04-23T04:45:16.959Z,75.00
2018-04-23T04:47:44.734Z,75.20
2018-04-23T04:50:12.182Z,75.40
2018-04-23T04:52:39.863Z,75.60
2018-04-23T04:55:07.324Z,76.10
2018-04-23T04:57:34.786Z,76.60
2018-04-23T05:00:02.508Z,76.70
2018-04-23T05:02:29.970Z,76.30
2018-04-23T05:04:57.946Z,76.60
2018-04-23T05:07:25.455Z,76.70
2018-04-23T05:09:54.090Z,77.50
2018-04-23T05:12:21.558Z,77.40
2018-04-23T05:14:49.024Z,77.30
2018-04-23T05:17:16.744Z,76.70
2018-04-23T05:19:44.799Z,77.30
2018-04-23T05:22:12.707Z,77.00
2018-04-23T05:24:40.183Z,76.40
2018-04-23T05:27:07.692Z,76.10
2018-04-23T05:29:35.595Z,75.30
2018-04-23T05:32:03.034Z,74.80
2018-04-23T05:34:30.540Z,74.90
2018-04-23T05:36:59.227Z,74.60
2018-04-23T05:39:27.466Z,74.60
2018-04-23T05:41:55.462Z,74.60
2018-04-23T05:44:23.692Z,74.00
2018-04-23T05:46:51.168Z,73.90
2018-04-23T05:49:18.611Z,73.70
2018-04-23T05:51:46.961Z,73.00
2018-04-23T05:54:14.408Z,73.00
2018-04-23T05:56:42.809Z,73.70
2018-04-23T05:59:10.282Z,73.50
2018-04-23T06:01:38.260Z,73.70
2018-04-23T06:04:06.050Z,72.60
2018-04-23T06:06:33.521Z,72.30
2018-04-23T06:09:01.734Z,72.00
2018-04-23T06:11:29.619Z,72.00
2018-04-23T06:13:57.175Z,72.10
2018-04-23T06:16:24.968Z,72.80
2018-04-23T06:18:53.739Z,72.70
2018-04-23T06:21:21.231Z,72.40
2018-04-23T06:23:48.688Z,72.10
2018-04-23T06:26:16.305Z,72.40
2018-04-23T06:28:43.751Z,72.30
2018-04-23T06:31:11.544Z,73.00
2018-04-23T06:33:39.002Z,72.10
2018-04-23T06:36:06.871Z,73.00
2018-04-23T06:38:35.091Z,71.50
2018-04-23T06:41:02.883Z,71.40
2018-04-23T06:43:30.368Z,72.10
2018-04-23T06:45:57.815Z,72.00
2018-04-23T06:48:25.873Z,71.50
2018-04-23T06:50:53.324Z,71.00
2018-04-23T06:53:20.791Z,70.60
2018-04-23T06:55:48.239Z,70.20
2018-04-23T06:58:15.710Z,70.20
2018-04-23T07:00:43.162Z,70.50
2018-04-23T07:03:10.820Z,70.80
2018-04-23T07:05:38.687Z,71.30
2018-04-23T07:08:06.162Z,70.80
2018-04-23T07:10:34.068Z,71.00
2018-04-23T07:13:03.023Z,70.70
2018-04-23T07:15:31.236Z,70.80
2018-04-23T07:17:58.717Z,70.80
2018-04-23T07:20:26.454Z,70.50
2018-04-23T07:22:53.909Z,70.50
2018-04-23T07:25:21.503Z,70.50
2018-04-23T07:27:49.004Z,70.40
2018-04-23T07:30:19.331Z,70.10
2018-04-23T07:32:46.809Z,70.10
2018-04-23T07:35:14.602Z,69.60
2018-04-23T07:37:42.060Z,69.40
2018-04-23T07:40:10.133Z,69.70
2018-04-23T07:42:37.592Z,69.60
2018-04-23T07:45:05.050Z,69.20
2018-04-23T07:47:32.983Z,69.90
2018-04-23T07:50:00.430Z,69.90
2018-04-23T07:52:27.897Z,69.50
2018-04-23T07:54:55.326Z,70.70
2018-04-23T07:57:23.604Z,67.70
2018-04-23T07:59:51.325Z,67.70
2018-04-23T08:02:19.191Z,67.20
2018-04-23T08:04:47.177Z,67.40
2018-04-23T08:07:14.640Z,67.10
2018-04-23T08:09:42.704Z,67.40
2018-04-23T08:12:11.171Z,66.50
2018-04-23T08:14:38.626Z,66.50
2018-04-23T08:17:06.114Z,66.20
2018-04-23T08:19:34.935Z,66.30
2018-04-23T08:22:02.387Z,66.20
2018-04-23T08:24:29.839Z,65.60
2018-04-23T08:26:57.311Z,65.20
2018-04-23T08:29:25.806Z,65.10
2018-04-23T08:31:53.492Z,65.00
2018-04-23T08:34:20.949Z,64.70
2018-04-23T08:36:48.702Z,64.60
2018-04-23T08:39:16.158Z,64.50
2018-04-23T08:41:44.050Z,63.30
2018-04-23T08:44:11.553Z,63.80
2018-04-23T08:46:38.987Z,62.70
2018-04-23T08:49:06.807Z,62.60
2018-04-23T08:51:35.029Z,63.90
2018-04-23T08:54:02.498Z,64.00
2018-04-23T08:56:29.941Z,64.30
2018-04-23T08:58:57.395Z,63.30
2018-04-23T09:01:25.000Z,62.00
2018-04-23T09:03:52.978Z,63.50
2018-04-23T09:06:20.421Z,61.40
2018-04-23T09:08:47.911Z,60.80
2018-04-23T09:11:15.907Z,60.50
2018-04-23T09:13:43.372Z,60.60
2018-04-23T09:16:10.810Z,59.70
2018-04-23T09:18:39.446Z,59.40
2018-04-23T09:21:06.979Z,59.40
2018-04-23T09:23:34.436Z,59.00
2018-04-23T09:26:02.020Z,58.80
2018-04-23T09:28:29.604Z,59.00
2018-04-23T09:30:57.426Z,58.90
2018-04-23T09:33:24.875Z,59.10
2018-04-23T09:35:52.872Z,59.40
2018-04-23T09:38:20.956Z,58.70
2018-04-23T09:40:49.046Z,58.80
2018-04-23T09:43:17.262Z,57.60
2018-04-23T09:45:44.721Z,57.60
2018-04-23T09:48:12.166Z,56.60
2018-04-23T09:50:39.660Z,56.10
2018-04-23T09:53:07.104Z,57.40
2018-04-23T09:55:34.586Z,57.90
2018-04-23T09:58:02.032Z,55.70
2018-04-23T10:00:31.534Z,55.40
2018-04-23T10:02:58.958Z,54.90
2018-04-23T10:05:26.759Z,55.40
2018-04-23T10:07:54.280Z,55.70
2018-04-23T10:10:22.198Z,56.20
2018-04-23T10:12:49.754Z,54.00
2018-04-23T10:15:17.237Z,52.20
2018-04-23T10:17:45.431Z,54.20
2018-04-23T10:20:13.159Z,54.10
2018-04-23T10:22:41.363Z,51.30
2018-04-23T10:25:08.982Z,51.70
2018-04-23T10:27:36.423Z,51.10
2018-04-23T10:30:04.107Z,50.70
2018-04-23T10:32:31.860Z,50.60
2018-04-23T10:35:01.486Z,50.70
2018-04-23T10:37:29.424Z,50.60
2018-04-23T10:39:57.409Z,51.60
2018-04-23T10:42:24.842Z,50.90
2018-04-23T10:44:52.307Z,50.80
2018-04-23T10:47:19.756Z,49.10
2018-04-23T10:49:47.239Z,48.40
2018-04-23T10:52:14.983Z,49.90
2018-04-23T10:54:43.231Z,51.50
2018-04-23T10:57:10.819Z,51.50
2018-04-23T10:59:38.607Z,51.40
2018-04-23T11:02:06.055Z,51.80
2018-04-23T11:04:34.007Z,52.40
2018-04-23T11:07:01.788Z,51.40
2018-04-23T11:09:29.739Z,50.50
2018-04-23T11:11:57.203Z,52.10
2018-04-23T11:14:24.635Z,51.00
2018-04-23T11:16:52.115Z,50.90
2018-04-23T11:19:19.872Z,51.20
2018-04-23T11:21:47.420Z,50.90
2018-04-23T11:24:14.855Z,51.50
2018-04-23T11:26:42.560Z,52.10
2018-04-23T11:29:10.754Z,51.20
2018-04-23T11:31:39.402Z,51.00
2018-04-23T11:34:07.069Z,51.00
2018-04-23T11:36:34.855Z,49.80
2018-04-23T11:39:03.062Z,49.10
2018-04-23T11:41:31.992Z,48.50
2018-04-23T11:43:59.463Z,48.10
2018-04-23T11:46:28.523Z,47.40
2018-04-23T11:48:55.976Z,47.40
2018-04-23T11:51:23.426Z,47.80
2018-04-23T11:53:50.915Z,49.80
2018-04-23T11:56:18.423Z,49.30
2018-04-23T11:58:45.942Z,49.10
2018-04-23T12:01:13.456Z,50.00
2018-04-23T12:03:41.373Z,49.50
2018-04-23T12:06:09.429Z,49.80
2018-04-23T12:08:36.906Z,49.10
2018-04-23T12:11:04.639Z,49.30
2018-04-23T12:13:32.112Z,48.60
2018-04-23T12:16:00.331Z,48.50
2018-04-23T12:18:28.133Z,47.90
2018-04-23T12:20:55.846Z,46.00
2018-04-23T12:23:24.116Z,44.50
2018-04-23T12:25:52.323Z,45.00
2018-04-23T12:28:19.777Z,44.80
2018-04-23T12:30:47.385Z,43.80
2018-04-23T12:33:15.084Z,42.90
2018-04-23T12:35:42.997Z,43.80
2018-04-23T12:38:10.447Z,43.30
2018-04-23T12:40:38.237Z,44.30
2018-04-23T12:43:05.683Z,44.90
2018-04-23T12:45:33.562Z,43.80
2018-04-23T12:48:01.000Z,41.80
2018-04-23T12:50:28.527Z,41.30
2018-04-23T12:52:55.981Z,42.60
2018-04-23T12:55:23.688Z,43.70
2018-04-23T12:57:51.139Z,40.70
2018-04-23T13:00:18.740Z,40.30
2018-04-23T13:02:46.952Z,41.20
2018-04-23T13:05:14.823Z,41.20
2018-04-23T13:07:42.267Z,41.40
2018-04-23T13:10:10.084Z,42.20
2018-04-23T13:12:38.287Z,44.20
2018-04-23T13:15:05.884Z,44.10
2018-04-23T13:17:33.947Z,45.20
2018-04-23T13:20:01.929Z,43.00
2018-04-23T13:22:29.809Z,43.20
2018-04-23T13:24:57.243Z,42.60
2018-04-23T13:27:24.907Z,42.50
2018-04-23T13:29:52.468Z,41.40
2018-04-23T13:32:20.453Z,42.40
2018-04-23T13:34:48.510Z,41.60
2018-04-23T13:37:15.978Z,41.30
2018-04-23T13:39:44.211Z,40.90
2018-04-23T13:42:12.133Z,40.20
2018-04-23T13:44:39.589Z,41.70
2018-04-23T13:47:07.088Z,40.70
2018-04-23T13:49:34.547Z,40.60
2018-04-23T13:52:01.996Z,41.30
2018-04-23T13:54:29.459Z,41.20
2018-04-23T13:56:56.904Z,40.20
2018-04-23T13:59:24.446Z,40.40
2018-04-23T14:01:53.189Z,38.80
2018-04-23T14:04:21.067Z,38.70
2018-04-23T14:06:48.519Z,39.90
2018-04-23T14:09:16.043Z,39.90
2018-04-23T14:11:43.834Z,41.40
2018-04-23T14:14:11.331Z,38.50
2018-04-23T14:16:39.532Z,37.60
2018-04-23T14:19:07.757Z,37.50
2018-04-23T14:21:35.222Z,37.50
2018-04-23T14:24:04.224Z,37.90
2018-04-23T14:26:31.670Z,37.90
2018-04-23T14:28:59.107Z,38.00
2018-04-23T14:31:27.075Z,38.80
2018-04-23T14:33:54.944Z,39.00
2018-04-23T14:36:22.910Z,38.70
2018-04-23T14:38:50.353Z,38.80
2018-04-23T14:41:18.329Z,38.30
2018-04-23T14:43:45.773Z,39.60
2018-04-23T14:46:13.234Z,39.80
2018-04-23T14:48:40.667Z,39.80
2018-04-23T14:51:08.205Z,40.20
2018-04-23T14:53:36.408Z,40.80
2018-04-23T14:56:03.881Z,40.80
2018-04-23T14:58:31.322Z,40.30
2018-04-23T15:00:59.237Z,41.00
2018-04-23T15:03:26.970Z,40.50
2018-04-23T15:05:54.858Z,39.90
2018-04-23T15:08:22.734Z,40.00
2018-04-23T15:10:50.440Z,39.70
2018-04-23T15:13:17.898Z,40.60
2018-04-23T15:15:45.350Z,40.30
2018-04-23T15:18:13.483Z,41.10
2018-04-23T15:20:41.687Z,41.30
2018-04-23T15:23:09.170Z,41.30
2018-04-23T15:25:36.628Z,41.90
2018-04-23T15:28:04.069Z,42.70
2018-04-23T15:30:31.681Z,42.30
2018-04-23T15:32:59.523Z,41.90
2018-04-23T15:35:27.605Z,42.00
2018-04-23T15:37:55.089Z,41.90
2018-04-23T15:40:23.906Z,41.80
2018-04-23T15:42:51.386Z,41.70
2018-04-23T15:45:18.896Z,41.40
2018-04-23T15:47:47.103Z,42.00
2018-04-23T15:50:14.574Z,42.00
2018-04-23T15:52:42.006Z,41.80
2018-04-23T15:55:09.793Z,42.20
2018-04-23T15:57:37.279Z,42.40
2018-04-23T16:00:06.672Z,42.50
2018-04-23T16:02:34.117Z,42.60
2018-04-23T16:05:02.062Z,42.70
2018-04-23T16:07:29.527Z,43.10
2018-04-23T16:09:57.452Z,43.20
2018-04-23T16:12:25.760Z,43.40
2018-04-23T16:14:53.261Z,43.40
2018-04-23T16:17:20.740Z,42.90
2018-04-23T16:19:49.285Z,41.80
2018-04-23T16:22:16.812Z,41.70
2018-04-23T16:24:44.428Z,42.10
2018-04-23T16:27:12.320Z,41.80
2018-04-23T16:29:39.773Z,42.50
2018-04-23T16:32:08.175Z,41.90
2018-04-23T16:34:36.077Z,41.90
2018-04-23T16:37:03.941Z,42.50
2018-04-23T16:39:31.393Z,42.90
2018-04-23T16:41:59.271Z,43.30
2018-04-23T16:44:27.170Z,43.00
2018-04-23T16:46:54.270Z,42.70
2018-04-23T16:49:21.700Z,43.50
2018-04-23T16:51:49.148Z,42.90
2018-04-23T16:54:16.745Z,43.60
2018-04-23T16:56:44.844Z,43.10
2018-04-23T16:59:12.290Z,43.50
2018-04-23T17:01:41.266Z,43.60
2018-04-23T17:04:09.232Z,43.60
2018-04-23T17:06:36.704Z,43.40
2018-04-23T17:09:04.154Z,43.40
2018-04-23T17:11:32.086Z,43.60
2018-04-23T17:13:59.548Z,43.60
2018-04-23T17:16:27.119Z,44.00
2018-04-23T17:18:55.105Z,43.50
2018-04-23T17:21:22.586Z,44.00
2018-04-23T17:23:50.120Z,43.80
2018-04-23T17:26:17.655Z,44.60
2018-04-23T17:28:45.409Z,43.60
2018-04-23T17:31:12.862Z,44.00
2018-04-23T17:33:42.205Z,44.00
2018-04-23T17:36:10.036Z,43.70
2018-04-23T17:38:37.510Z,43.90
2018-04-23T17:41:05.457Z,43.90
2018-04-23T17:43:32.912Z,43.70
2018-04-23T17:46:00.381Z,43.90
2018-04-23T17:48:27.813Z,43.40
2018-04-23T17:50:55.278Z,43.70
2018-04-23T17:53:23.089Z,43.80
2018-04-23T17:55:51.164Z,43.60
2018-04-23T17:58:20.117Z,43.90
2018-04-23T18:00:47.614Z,43.90
2018-04-23T18:03:15.685Z,44.10
2018-04-23T18:05:44.142Z,45.00
2018-04-23T18:08:11.597Z,45.10
2018-04-23T18:10:39.402Z,45.10
2018-04-23T18:13:08.069Z,45.90
2018-04-23T18:15:36.335Z,45.90
2018-04-23T18:18:03.784Z,45.90
2018-04-23T18:20:31.559Z,46.00
2018-04-23T18:22:59.770Z,46.00
2018-04-23T18:25:27.992Z,46.00
2018-04-23T18:27:55.430Z,46.00
2018-04-23T18:30:23.194Z,46.10
2018-04-23T18:32:50.634Z,46.20
2018-04-23T18:35:18.572Z,46.20
2018-04-23T18:37:46.802Z,46.90
2018-04-23T18:40:14.799Z,46.90
2018-04-23T18:42:42.272Z,47.30
2018-04-23T18:45:10.513Z,46.50
2018-04-23T18:47:38.066Z,46.50
2018-04-23T18:50:05.651Z,46.60
2018-04-23T18:52:33.876Z,46.50
2018-04-23T18:55:01.542Z,46.50
2018-04-23T18:57:29.010Z,46.50
2018-04-23T18:59:56.497Z,46.30
2018-04-23T19:02:24.223Z,45.70
2018-04-23T19:04:52.286Z,45.90
2018-04-23T19:07:20.496Z,46.20
2018-04-23T19:09:48.617Z,46.10
2018-04-23T19:12:16.566Z,46.20
2018-04-23T19:14:44.198Z,46.40
2018-04-23T19:17:11.592Z,46.50
2018-04-23T19:19:40.308Z,46.70
2018-04-23T19:22:07.882Z,46.60
2018-04-23T19:24:35.434Z,46.90
2018-04-23T19:27:03.795Z,46.90
2018-04-23T19:29:31.492Z,47.00
2018-04-23T19:31:58.960Z,46.80
2018-04-23T19:34:27.020Z,46.70
2018-04-23T19:36:55.276Z,46.80
2018-04-23T19:39:22.721Z,46.60
2018-04-23T19:41:50.627Z,46.90
2018-04-23T19:44:18.716Z,47.10
2018-04-23T19:46:46.957Z,46.90
2018-04-23T19:49:14.417Z,46.80
2018-04-23T19:51:41.965Z,47.00
2018-04-23T19:54:09.820Z,47.20
2018-04-23T19:56:37.331Z,47.30
2018-04-23T19:59:05.895Z,47.00
2018-04-23T20:01:34.154Z,47.20
2018-04-23T20:04:02.135Z,47.30
2018-04-23T20:06:29.569Z,47.30
2018-04-23T20:08:57.140Z,47.10
2018-04-23T20:11:24.964Z,47.20
2018-04-23T20:13:52.464Z,47.20
2018-04-23T20:16:20.336Z,47.00
2018-04-23T20:18:48.218Z,47.90
2018-04-23T20:21:15.662Z,48.60
2018-04-23T20:23:43.179Z,48.20
2018-04-23T20:26:10.975Z,48.60
2018-04-23T20:28:38.639Z,49.30
2018-04-23T20:31:06.107Z,49.70
2018-04-23T20:33:34.074Z,49.70
2018-04-23T20:36:02.194Z,50.80
2018-04-23T20:38:29.662Z,51.20
2018-04-23T20:40:57.467Z,51.40
2018-04-23T20:43:24.943Z,51.00
2018-04-23T20:45:53.176Z,51.10
2018-04-23T20:48:20.991Z,51.10
2018-04-23T20:50:49.746Z,51.30
2018-04-23T20:53:17.190Z,51.20
2018-04-23T20:55:45.276Z,51.20
2018-04-23T20:58:12.727Z,51.20
2018-04-23T21:00:40.248Z,51.30
2018-04-23T21:03:08.178Z,51.40
2018-04-23T21:05:36.933Z,51.40
2018-04-23T21:08:04.347Z,51.30
2018-04-23T21:10:32.983Z,51.40
2018-04-23T21:13:00.413Z,51.70
2018-04-23T21:15:27.860Z,52.70
2018-04-23T21:17:55.362Z,53.40
2018-04-23T21:20:23.426Z,53.50
2018-04-23T21:22:51.405Z,53.80
2018-04-23T21:25:18.903Z,53.70
2018-04-23T21:27:47.033Z,53.90
2018-04-23T21:30:14.894Z,54.10
2018-04-23T21:32:42.540Z,54.10
2018-04-23T21:35:10.552Z,54.10
2018-04-23T21:37:38.960Z,53.90
2018-04-23T21:40:06.718Z,53.90
2018-04-23T21:42:34.179Z,54.00
2018-04-23T21:45:02.390Z,54.10
2018-04-23T21:47:31.447Z,54.20
2018-04-23T21:49:59.560Z,54.20
2018-04-23T21:52:26.991Z,54.40
2018-04-23T21:54:54.454Z,54.60
2018-04-23T21:57:21.894Z,55.20
2018-04-23T21:59:49.990Z,55.10
2018-04-23T22:02:17.449Z,55.00
2018-04-23T22:04:45.519Z,55.00
2018-04-23T22:07:12.963Z,55.30
2018-04-23T22:09:41.660Z,55.30
2018-04-23T22:12:09.456Z,55.50
2018-04-23T22:14:37.695Z,56.20
2018-04-23T22:17:05.153Z,55.50
2018-04-23T22:19:32.918Z,55.50
2018-04-23T22:22:00.371Z,55.80
2018-04-23T22:24:27.935Z,56.00
2018-04-23T22:26:55.399Z,56.10
2018-04-23T22:29:23.254Z,56.10
2018-04-23T22:31:50.700Z,56.20
2018-04-23T22:34:18.273Z,56.30
2018-04-23T22:36:46.338Z,56.50
2018-04-23T22:39:13.778Z,56.90
2018-04-23T22:41:41.794Z,56.70
2018-04-23T22:44:10.011Z,56.90
2018-04-23T22:46:37.472Z,57.40
2018-04-23T22:49:05.259Z,57.00
2018-04-23T22:51:32.733Z,57.10
2018-04-23T22:54:00.200Z,57.30
2018-04-23T22:56:27.840Z,57.50
2018-04-23T22:58:55.316Z,58.20
2018-04-23T23:01:23.744Z,58.10
2018-04-23T23:03:51.678Z,58.10
2018-04-23T23:06:19.904Z,58.40
2018-04-23T23:08:47.365Z,58.40
2018-04-23T23:11:15.267Z,58.50
2018-04-23T23:13:43.497Z,59.00
2018-04-23T23:16:10.976Z,58.90
2018-04-23T23:18:38.736Z,59.20
2018-04-23T23:21:06.206Z,58.20
2018-04-23T23:23:33.659Z,58.00
2018-04-23T23:26:01.149Z,58.00
2018-04-23T23:28:29.346Z,58.20
2018-04-23T23:30:57.034Z,58.20
2018-04-23T23:33:24.463Z,58.70
2018-04-23T23:35:52.242Z,59.20
2018-04-23T23:38:19.933Z,59.00
2018-04-23T23:40:47.894Z,59.30
2018-04-23T23:43:15.555Z,58.30
2018-04-23T23:45:43.423Z,58.00
2018-04-23T23:48:10.878Z,58.70
2018-04-23T23:50:39.269Z,58.00
2018-04-23T23:53:06.730Z,58.00
2018-04-23T23:55:35.380Z,57.90
2018-04-23T23:58:02.817Z,58.30
